createdAt,value
2022-10-09T00:02:00.225Z,99297.40
2022-10-09T00:04:31.795Z,99304.32
2022-10-09T00:07:03.178Z,99306.70
2022-10-09T00:09:34.770Z,99305.70
2022-10-09T00:12:06.394Z,99313.52
2022-10-09T00:14:37.771Z,99317.77
2022-10-09T00:17:09.369Z,99308.87
2022-10-09T00:19:40.914Z,99310.67
2022-10-09T00:22:12.345Z,99315.17
2022-10-09T00:24:44.811Z,99312.17
2022-10-09T00:27:16.274Z,99314.39
2022-10-09T00:29:47.932Z,99314.63
2022-10-09T00:32:20.199Z,99311.61
2022-10-09T00:34:52.156Z,99315.20
2022-10-09T00:37:23.627Z,99325.51
2022-10-09T00:39:55.061Z,99330.16
2022-10-09T00:42:27.243Z,99332.68
2022-10-09T00:45:01.359Z,99331.26
2022-10-09T00:47:39.684Z,99335.24
2022-10-09T00:50:18.510Z,99337.68
2022-10-09T00:52:54.645Z,99337.72
2022-10-09T00:55:27.635Z,99339.20
2022-10-09T00:58:01.444Z,99338.27
2022-10-09T01:00:33.226Z,99338.54
2022-10-09T01:03:05.080Z,99336.65
2022-10-09T01:05:45.253Z,99345.02
2022-10-09T01:08:27.043Z,99352.89
2022-10-09T01:11:08.043Z,99351.02
2022-10-09T01:13:47.841Z,99350.57
2022-10-09T01:16:28.213Z,99348.05
2022-10-09T01:19:12.670Z,99348.50
2022-10-09T01:21:54.151Z,99351.41
2022-10-09T01:24:31.108Z,99352.45
2022-10-09T01:27:16.867Z,99353.47
2022-10-09T01:29:54.139Z,99353.61
2022-10-09T01:32:32.239Z,99354.91
2022-10-09T01:35:05.771Z,99358.29
2022-10-09T01:37:39.243Z,99359.58
2022-10-09T01:40:13.990Z,99363.79
2022-10-09T01:42:48.052Z,99366.29
2022-10-09T01:45:21.993Z,99366.33
2022-10-09T01:47:55.052Z,99368.94
2022-10-09T01:50:33.505Z,99367.04
2022-10-09T01:53:08.846Z,99368.13
2022-10-09T01:55:46.959Z,99369.92
2022-10-09T01:58:24.315Z,99376.13
2022-10-09T02:01:02.963Z,99383.33
2022-10-09T02:03:37.228Z,99389.73
2022-10-09T02:06:13.241Z,99390.57
2022-10-09T02:08:47.795Z,99397.02
2022-10-09T02:11:19.650Z,99398.28
2022-10-09T02:13:53.846Z,99399.34
2022-10-09T02:16:37.726Z,99403.18
2022-10-09T02:19:10.674Z,99407.31
2022-10-09T02:21:48.038Z,99408.27
2022-10-09T02:24:23.770Z,99411.90
2022-10-09T02:26:57.575Z,99416.95
2022-10-09T02:29:29.389Z,99424.72
2022-10-09T02:32:01.009Z,99426.33
2022-10-09T02:34:32.909Z,99422.86
2022-10-09T02:37:04.926Z,99426.24
2022-10-09T02:39:36.894Z,99431.11
2022-10-09T02:42:08.506Z,99432.40
2022-10-09T02:44:40.061Z,99436.56
2022-10-09T02:47:11.524Z,99434.02
2022-10-09T02:49:42.892Z,99441.66
2022-10-09T02:52:14.299Z,99440.80
2022-10-09T02:54:45.709Z,99443.73
2022-10-09T02:57:17.162Z,99443.66
2022-10-09T02:59:48.778Z,99440.73
2022-10-09T03:02:22.911Z,99450.25
2022-10-09T03:04:54.541Z,99456.79
2022-10-09T03:07:27.171Z,99460.02
2022-10-09T03:09:58.986Z,99459.06
2022-10-09T03:12:30.407Z,99460.01
2022-10-09T03:15:05.267Z,99464.27
2022-10-09T03:17:36.751Z,99467.91
2022-10-09T03:20:10.408Z,99462.69
2022-10-09T03:22:41.885Z,99466.08
2022-10-09T03:25:13.558Z,99470.38
2022-10-09T03:27:44.981Z,99473.38
2022-10-09T03:30:17.241Z,99477.21
2022-10-09T03:32:48.974Z,99485.03
2022-10-09T03:35:20.695Z,99487.73
2022-10-09T03:37:52.098Z,99490.70
2022-10-09T03:40:26.471Z,99489.41
2022-10-09T03:42:58.034Z,99491.38
2022-10-09T03:45:29.579Z,99494.00
2022-10-09T03:48:01.140Z,99495.73
2022-10-09T03:50:32.678Z,99495.33
2022-10-09T03:53:04.114Z,99498.33
2022-10-09T03:55:39.258Z,99497.38
2022-10-09T03:58:11.648Z,99498.41
2022-10-09T04:00:45.540Z,99505.12
2022-10-09T04:03:17.219Z,99509.98
2022-10-09T04:05:48.672Z,99515.73
2022-10-09T04:08:20.122Z,99514.64
2022-10-09T04:10:56.912Z,99516.40
2022-10-09T04:13:28.829Z,99515.16
2022-10-09T04:16:00.279Z,99512.56
2022-10-09T04:18:31.877Z,99517.59
2022-10-09T04:21:04.559Z,99524.10
2022-10-09T04:23:38.437Z,99528.13
2022-10-09T04:26:11.995Z,99524.80
2022-10-09T04:28:43.821Z,99523.73
2022-10-09T04:31:15.534Z,99523.19
2022-10-09T04:33:48.274Z,99534.17
2022-10-09T04:36:19.831Z,99537.77
2022-10-09T04:38:53.814Z,99536.91
2022-10-09T04:41:25.383Z,99543.09
2022-10-09T04:43:58.633Z,99544.14
2022-10-09T04:46:30.257Z,99548.61
2022-10-09T04:49:01.990Z,99550.14
2022-10-09T04:51:33.556Z,99550.52
2022-10-09T04:54:05.111Z,99557.79
2022-10-09T04:56:36.670Z,99565.54
2022-10-09T04:59:12.473Z,99570.34
2022-10-09T05:01:46.979Z,99572.52
2022-10-09T05:04:21.058Z,99576.06
2022-10-09T05:06:52.544Z,99580.31
2022-10-09T05:09:25.588Z,99582.71
2022-10-09T05:11:56.993Z,99582.00
2022-10-09T05:14:28.522Z,99585.66
2022-10-09T05:17:23.296Z,99583.09
2022-10-09T05:19:55.103Z,99585.35
2022-10-09T05:22:26.607Z,99583.02
2022-10-09T05:24:58.171Z,99581.04
2022-10-09T05:27:29.727Z,99586.17
2022-10-09T05:30:01.118Z,99584.84
2022-10-09T05:32:32.597Z,99585.01
2022-10-09T05:35:04.611Z,99590.69
2022-10-09T05:37:36.253Z,99588.66
2022-10-09T05:40:09.790Z,99595.08
2022-10-09T05:42:41.310Z,99600.02
2022-10-09T05:45:19.007Z,99603.61
2022-10-09T05:47:57.726Z,99605.83
2022-10-09T05:50:29.282Z,99614.74
2022-10-09T05:53:01.140Z,99616.89
2022-10-09T05:55:32.694Z,99615.39
2022-10-09T05:58:04.397Z,99618.33
2022-10-09T06:00:37.149Z,99621.89
2022-10-09T06:03:08.685Z,99628.60
2022-10-09T06:05:40.138Z,99627.55
2022-10-09T06:08:14.344Z,99631.52
2022-10-09T06:10:45.901Z,99633.41
2022-10-09T06:13:20.330Z,99635.23
2022-10-09T06:15:56.017Z,99637.17
2022-10-09T06:18:28.598Z,99641.02
2022-10-09T06:21:04.330Z,99640.54
2022-10-09T06:23:36.796Z,99644.42
2022-10-09T06:26:09.979Z,99643.10
2022-10-09T06:28:41.756Z,99648.95
2022-10-09T06:31:17.797Z,99652.88
2022-10-09T06:33:51.098Z,99661.41
2022-10-09T06:36:23.897Z,99659.50
2022-10-09T06:38:56.833Z,99662.89
2022-10-09T06:41:29.573Z,99666.38
2022-10-09T06:44:04.300Z,99669.59
2022-10-09T06:46:37.777Z,99677.38
2022-10-09T06:49:11.427Z,99683.80
2022-10-09T06:51:43.152Z,99679.10
2022-10-09T06:54:17.411Z,99680.02
2022-10-09T06:56:48.869Z,99679.48
2022-10-09T06:59:20.209Z,99684.30
2022-10-09T07:01:51.699Z,99690.59
2022-10-09T07:04:23.208Z,99694.02
2022-10-09T07:06:55.033Z,99698.96
2022-10-09T07:09:26.476Z,99700.73
2022-10-09T07:11:58.042Z,99696.50
2022-10-09T07:14:30.562Z,99698.45
2022-10-09T07:17:02.781Z,99702.81
2022-10-09T07:19:34.335Z,99705.37
2022-10-09T07:22:05.799Z,99705.65
2022-10-09T07:24:37.243Z,99714.12
2022-10-09T07:27:08.695Z,99715.19
2022-10-09T07:29:41.080Z,99719.92
2022-10-09T07:32:12.524Z,99723.91
2022-10-09T07:34:44.191Z,99725.83
2022-10-09T07:37:15.954Z,99733.75
2022-10-09T07:39:47.497Z,99737.34
2022-10-09T07:42:18.912Z,99735.02
2022-10-09T07:44:50.291Z,99738.91
2022-10-09T07:47:21.766Z,99741.62
2022-10-09T07:49:53.134Z,99744.27
2022-10-09T07:52:24.659Z,99739.09
2022-10-09T07:54:56.638Z,99740.22
2022-10-09T07:57:28.805Z,99743.92
2022-10-09T08:00:00.264Z,99746.05
2022-10-09T08:02:32.972Z,99748.10
2022-10-09T08:05:04.702Z,99751.98
2022-10-09T08:07:36.148Z,99750.45
2022-10-09T08:10:09.031Z,99756.12
2022-10-09T08:12:40.428Z,99752.19
2022-10-09T08:15:13.263Z,99750.13
2022-10-09T08:17:44.728Z,99748.05
2022-10-09T08:20:16.179Z,99746.27
2022-10-09T08:22:47.940Z,99748.87
2022-10-09T08:25:19.894Z,99753.09
2022-10-09T08:27:53.104Z,99754.65
2022-10-09T08:30:25.051Z,99752.64
2022-10-09T08:32:56.446Z,99752.81
2022-10-09T08:35:31.114Z,99754.73
2022-10-09T08:38:05.816Z,99756.34
2022-10-09T08:40:43.467Z,99758.06
2022-10-09T08:43:20.345Z,99756.58
2022-10-09T08:45:52.758Z,99752.85
2022-10-09T08:48:28.231Z,99756.81
2022-10-09T08:51:00.877Z,99759.89
2022-10-09T08:53:39.262Z,99762.31
2022-10-09T08:56:16.244Z,99767.65
2022-10-09T08:58:47.800Z,99769.40
2022-10-09T09:01:27.552Z,99771.58
2022-10-09T09:04:12.212Z,99767.94
2022-10-09T09:06:53.735Z,99774.48
2022-10-09T09:09:35.082Z,99770.84
2022-10-09T09:12:13.677Z,99765.95
2022-10-09T09:15:01.096Z,99771.73
2022-10-09T09:17:43.493Z,99771.80
2022-10-09T09:20:23.818Z,99774.60
2022-10-09T09:22:57.799Z,99777.55
2022-10-09T09:25:34.696Z,99778.78
2022-10-09T09:28:16.603Z,99775.14
2022-10-09T09:30:51.881Z,99774.41
2022-10-09T09:33:26.980Z,99771.70
2022-10-09T09:36:08.854Z,99766.33
2022-10-09T09:38:54.763Z,99764.77
2022-10-09T09:41:31.943Z,99766.46
2022-10-09T09:44:03.518Z,99769.70
2022-10-09T09:46:35.179Z,99777.06
2022-10-09T09:49:18.689Z,99769.61
2022-10-09T09:51:51.976Z,99766.90
2022-10-09T09:54:27.018Z,99767.52
2022-10-09T09:57:21.838Z,99766.70
2022-10-09T09:59:53.454Z,99765.46
2022-10-09T10:02:27.181Z,99771.34
2022-10-09T10:05:01.386Z,99765.55
2022-10-09T10:07:35.223Z,99766.83
2022-10-09T10:10:18.734Z,99769.48
2022-10-09T10:12:58.543Z,99773.80
2022-10-09T10:15:31.774Z,99771.66
2022-10-09T10:18:06.198Z,99764.03
2022-10-09T10:20:46.560Z,99763.67
2022-10-09T10:23:35.592Z,99768.22
2022-10-09T10:26:12.384Z,99765.47
2022-10-09T10:28:50.919Z,99761.27
2022-10-09T10:31:36.801Z,99766.13
2022-10-09T10:34:15.020Z,99769.01
2022-10-09T10:36:47.727Z,99767.83
2022-10-09T10:39:28.075Z,99771.46
2022-10-09T10:42:02.703Z,99769.98
2022-10-09T10:44:44.496Z,99764.35
2022-10-09T10:47:23.865Z,99765.17
2022-10-09T10:49:55.788Z,99769.66
2022-10-09T10:52:50.618Z,99767.55
2022-10-09T10:55:35.675Z,99765.41
2022-10-09T11:01:13.149Z,99761.79
2022-10-09T11:04:05.518Z,99762.33
2022-10-09T11:06:41.900Z,99765.86
2022-10-09T11:09:23.687Z,99770.67
2022-10-09T11:12:02.439Z,99761.59
2022-10-09T11:14:47.283Z,99757.11
2022-10-09T11:17:31.053Z,99756.09
2022-10-09T11:20:20.527Z,99751.79
2022-10-09T11:23:04.393Z,99757.40
2022-10-09T11:25:46.565Z,99754.86
2022-10-09T11:28:23.055Z,99755.84
2022-10-09T11:31:03.265Z,99757.02
2022-10-09T11:33:40.507Z,99755.05
2022-10-09T11:36:18.136Z,99752.25
2022-10-09T11:38:56.370Z,99755.17
2022-10-09T11:41:30.281Z,99750.27
2022-10-09T11:44:20.398Z,99748.52
2022-10-09T11:47:01.599Z,99743.10
2022-10-09T11:49:44.490Z,99737.30
2022-10-09T11:52:26.262Z,99739.99
2022-10-09T11:55:08.166Z,99741.13
2022-10-09T11:57:39.579Z,99741.33
2022-10-09T12:00:13.970Z,99739.06
2022-10-09T12:02:57.772Z,99738.66
2022-10-09T12:05:40.881Z,99729.54
2022-10-09T12:08:18.364Z,99731.92
2022-10-09T12:10:54.859Z,99728.92
2022-10-09T12:13:45.133Z,99723.67
2022-10-09T12:16:35.471Z,99726.13
2022-10-09T12:19:14.480Z,99727.23
2022-10-09T12:21:52.263Z,99722.85
2022-10-09T12:24:26.712Z,99721.99
2022-10-09T12:27:03.286Z,99718.41
2022-10-09T12:29:43.041Z,99722.94
2022-10-09T12:32:25.441Z,99722.92
2022-10-09T12:34:59.046Z,99721.42
2022-10-09T12:37:36.965Z,99719.04
2022-10-09T12:40:15.356Z,99723.25
2022-10-09T12:42:48.250Z,99722.17
2022-10-09T12:45:19.378Z,99719.84
2022-10-09T12:47:51.542Z,99715.03
2022-10-09T12:50:26.522Z,99719.57
2022-10-09T12:53:00.808Z,99714.33
2022-10-09T12:55:34.437Z,99714.45
2022-10-09T12:58:08.987Z,99720.15
2022-10-09T13:00:42.641Z,99715.67
2022-10-09T13:03:26.256Z,99713.89
2022-10-09T13:05:58.074Z,99706.88
2022-10-09T13:08:33.503Z,99709.20
2022-10-09T13:11:13.899Z,99704.00
2022-10-09T13:13:49.520Z,99710.15
2022-10-09T13:16:23.242Z,99709.55
2022-10-09T13:19:02.669Z,99710.20
2022-10-09T13:21:35.535Z,99708.05
2022-10-09T13:24:13.876Z,99712.89
2022-10-09T13:26:45.919Z,99709.73
2022-10-09T13:29:17.358Z,99705.41
2022-10-09T13:31:48.792Z,99704.55
2022-10-09T13:34:20.259Z,99702.64
2022-10-09T13:36:51.863Z,99701.14
2022-10-09T13:39:23.278Z,99701.15
2022-10-09T13:41:57.307Z,99698.89
2022-10-09T13:44:28.818Z,99698.08
2022-10-09T13:47:01.548Z,99701.34
2022-10-09T13:49:32.966Z,99697.71
2022-10-09T13:52:04.841Z,99695.86
2022-10-09T13:54:36.276Z,99695.96
2022-10-09T13:57:07.820Z,99695.91
2022-10-09T13:59:39.299Z,99696.79
2022-10-09T14:02:12.089Z,99699.19
2022-10-09T14:04:44.158Z,99696.13
2022-10-09T14:07:15.817Z,99694.89
2022-10-09T14:09:47.331Z,99695.73
2022-10-09T14:12:18.752Z,99692.66
2022-10-09T14:14:50.233Z,99690.08
2022-10-09T14:17:21.654Z,99686.05
2022-10-09T14:19:53.496Z,99680.54
2022-10-09T14:22:24.977Z,99675.41
2022-10-09T14:24:56.349Z,99676.75
2022-10-09T14:27:27.998Z,99677.30
2022-10-09T14:29:59.569Z,99674.58
2022-10-09T14:32:31.325Z,99671.91
2022-10-09T14:35:02.721Z,99669.52
2022-10-09T14:37:41.607Z,99668.08
2022-10-09T14:40:14.482Z,99665.35
2022-10-09T14:42:46.202Z,99660.70
2022-10-09T14:45:17.802Z,99657.20
2022-10-09T14:47:49.211Z,99656.80
2022-10-09T14:50:20.909Z,99651.38
2022-10-09T14:52:52.559Z,99653.60
2022-10-09T14:55:24.222Z,99650.80
2022-10-09T14:57:55.753Z,99649.91
2022-10-09T15:00:27.185Z,99649.27
2022-10-09T15:02:59.762Z,99646.42
2022-10-09T15:05:31.394Z,99648.39
2022-10-09T15:08:02.908Z,99649.44
2022-10-09T15:10:36.711Z,99644.17
2022-10-09T15:13:08.267Z,99641.92
2022-10-09T15:15:39.833Z,99644.48
2022-10-09T15:18:11.203Z,99644.49
2022-10-09T15:20:44.587Z,99643.34
2022-10-09T15:23:16.293Z,99643.14
2022-10-09T15:25:52.660Z,99641.95
2022-10-09T15:28:24.727Z,99644.24
2022-10-09T15:31:00.360Z,99638.08
2022-10-09T15:33:31.891Z,99643.11
2022-10-09T15:36:04.103Z,99643.25
2022-10-09T15:38:35.525Z,99650.42
2022-10-09T15:41:07.078Z,99647.81
2022-10-09T15:43:41.129Z,99643.70
2022-10-09T15:46:12.841Z,99644.39
2022-10-09T15:48:45.030Z,99643.33
2022-10-09T15:51:16.874Z,99642.59
2022-10-09T15:53:50.695Z,99644.32
2022-10-09T15:56:24.648Z,99640.73
2022-10-09T15:58:58.504Z,99644.48
2022-10-09T16:01:30.073Z,99644.29
2022-10-09T16:04:01.514Z,99646.90
2022-10-09T16:06:35.132Z,99647.66
2022-10-09T16:09:06.788Z,99651.02
2022-10-09T16:11:38.636Z,99651.86
2022-10-09T16:14:10.058Z,99653.02
2022-10-09T16:16:41.468Z,99653.80
2022-10-09T16:19:12.901Z,99657.05
2022-10-09T16:21:44.319Z,99659.89
2022-10-09T16:24:15.801Z,99662.84
2022-10-09T16:26:47.247Z,99663.05
2022-10-09T16:29:18.801Z,99667.39
2022-10-09T16:31:50.208Z,99667.98
2022-10-09T16:34:21.716Z,99667.38
2022-10-09T16:36:53.269Z,99672.58
2022-10-09T16:39:24.685Z,99672.67
2022-10-09T16:41:57.713Z,99674.52
2022-10-09T16:44:31.035Z,99676.66
2022-10-09T16:47:04.840Z,99676.19
2022-10-09T16:49:35.023Z,99676.55
2022-10-09T16:52:06.801Z,99676.77
2022-10-09T16:54:39.069Z,99675.66
2022-10-09T16:57:11.158Z,99677.70
2022-10-09T16:59:44.019Z,99678.84
2022-10-09T17:02:16.507Z,99675.40
2022-10-09T17:04:47.957Z,99681.58
2022-10-09T17:07:20.723Z,99680.98
2022-10-09T17:09:52.178Z,99676.63
2022-10-09T17:12:23.631Z,99682.52
2022-10-09T17:14:57.036Z,99683.15
2022-10-09T17:17:28.468Z,99682.98
2022-10-09T17:20:00.001Z,99683.83
2022-10-09T17:22:31.408Z,99685.15
2022-10-09T17:25:03.287Z,99688.81
2022-10-09T17:27:34.719Z,99691.98
2022-10-09T17:30:07.166Z,99693.02
2022-10-09T17:32:38.621Z,99691.02
2022-10-09T17:35:11.731Z,99690.76
2022-10-09T17:37:43.276Z,99693.10
2022-10-09T17:40:14.936Z,99694.59
2022-10-09T17:42:46.913Z,99695.55
2022-10-09T17:45:18.731Z,99692.33
2022-10-09T17:47:50.304Z,99693.45
2022-10-09T17:50:21.962Z,99696.77
2022-10-09T17:52:53.523Z,99698.30
2022-10-09T17:55:25.153Z,99701.29
2022-10-09T17:57:57.139Z,99698.29
2022-10-09T18:00:29.010Z,99698.81
2022-10-09T18:03:00.450Z,99695.69
2022-10-09T18:05:32.529Z,99696.71
2022-10-09T18:08:04.078Z,99701.29
2022-10-09T18:10:37.086Z,99702.09
2022-10-09T18:13:09.666Z,99704.25
2022-10-09T18:15:42.942Z,99712.15
2022-10-09T18:18:14.591Z,99712.56
2022-10-09T18:20:46.061Z,99713.56
2022-10-09T18:23:22.401Z,99713.13
2022-10-09T18:25:54.271Z,99713.39
2022-10-09T18:31:04.901Z,99714.89
2022-10-09T18:33:37.226Z,99712.38
2022-10-09T18:36:11.884Z,99713.26
2022-10-09T18:38:43.383Z,99714.42
2022-10-09T18:41:15.320Z,99720.27
2022-10-09T18:43:47.613Z,99722.27
2022-10-09T18:46:21.644Z,99724.23
2022-10-09T18:48:55.372Z,99724.55
2022-10-09T18:51:29.730Z,99727.96
2022-10-09T18:54:06.840Z,99729.58
2022-10-09T18:56:39.544Z,99725.23
2022-10-09T18:59:14.075Z,99730.06
2022-10-09T19:01:45.973Z,99733.88
2022-10-09T19:04:19.166Z,99735.58
2022-10-09T19:06:52.231Z,99736.45
2022-10-09T19:09:24.374Z,99734.96
2022-10-09T19:11:55.786Z,99731.77
2022-10-09T19:14:27.274Z,99734.84
2022-10-09T19:16:58.836Z,99723.29
2022-10-09T19:19:30.809Z,99725.61
2022-10-09T19:22:05.325Z,99728.30
2022-10-09T19:24:36.816Z,99725.52
2022-10-09T19:27:08.731Z,99723.60
2022-10-09T19:29:40.283Z,99719.98
2022-10-09T19:32:11.748Z,99718.84
2022-10-09T19:34:44.423Z,99722.20
2022-10-09T19:37:16.494Z,99725.14
2022-10-09T19:39:49.366Z,99725.31
2022-10-09T19:42:21.250Z,99722.45
2022-10-09T19:44:52.781Z,99725.11
2022-10-09T19:47:24.243Z,99720.86
2022-10-09T19:49:55.665Z,99712.02
2022-10-09T19:52:27.298Z,99713.04
2022-10-09T19:54:58.799Z,99713.64
2022-10-09T19:57:30.212Z,99713.59
2022-10-09T20:00:01.709Z,99712.66
2022-10-09T20:02:33.140Z,99717.50
2022-10-09T20:05:04.998Z,99716.85
2022-10-09T20:07:36.559Z,99716.29
2022-10-09T20:10:09.629Z,99719.23
2022-10-09T20:12:41.224Z,99718.47
2022-10-09T20:15:14.449Z,99714.13
2022-10-09T20:17:45.811Z,99715.02
2022-10-09T20:20:17.438Z,99716.15
2022-10-09T20:22:49.084Z,99720.68
2022-10-09T20:25:21.096Z,99719.47
2022-10-09T20:27:52.585Z,99724.29
2022-10-09T20:30:24.030Z,99728.73
2022-10-09T20:32:59.174Z,99727.13
2022-10-09T20:35:31.356Z,99728.20
2022-10-09T20:38:02.733Z,99723.74
2022-10-09T20:40:35.167Z,99728.17
2022-10-09T20:43:06.632Z,99727.75
2022-10-09T20:45:43.123Z,99730.33
2022-10-09T20:48:14.857Z,99730.80
2022-10-09T20:50:46.274Z,99728.69
2022-10-09T20:53:17.965Z,99730.23
2022-10-09T20:55:49.416Z,99730.33
2022-10-09T20:58:20.859Z,99727.79
2022-10-09T21:00:52.324Z,99734.23
2022-10-09T21:03:23.932Z,99731.23
2022-10-09T21:05:55.561Z,99730.17
2022-10-09T21:08:27.026Z,99729.29
2022-10-09T21:10:58.518Z,99734.77
2022-10-09T21:13:29.909Z,99728.65
2022-10-09T21:16:01.312Z,99730.34
2022-10-09T21:18:32.769Z,99730.05
2022-10-09T21:21:08.474Z,99733.70
2022-10-09T21:23:40.230Z,99728.35
2022-10-09T21:26:15.387Z,99733.00
2022-10-09T21:28:47.506Z,99732.05
2022-10-09T21:31:22.857Z,99731.56
2022-10-09T21:33:54.495Z,99727.91
2022-10-09T21:36:35.554Z,99720.52
2022-10-09T21:39:08.507Z,99721.20
2022-10-09T21:41:40.098Z,99717.02
2022-10-09T21:44:11.755Z,99718.45
2022-10-09T21:46:43.161Z,99711.82
2022-10-09T21:49:20.360Z,99716.01
2022-10-09T21:51:51.986Z,99711.14
2022-10-09T21:54:23.715Z,99714.95
2022-10-09T21:56:55.167Z,99714.67
2022-10-09T21:59:26.707Z,99716.83
2022-10-09T22:01:58.259Z,99719.29
2022-10-09T22:04:29.823Z,99721.71
2022-10-09T22:07:01.369Z,99714.39
2022-10-09T22:09:32.819Z,99713.45
2022-10-09T22:12:04.482Z,99716.05
2022-10-09T22:14:35.877Z,99713.85
2022-10-09T22:17:07.277Z,99709.59
2022-10-09T22:19:38.738Z,99706.41
2022-10-09T22:22:10.393Z,99706.58
2022-10-09T22:24:41.835Z,99709.87
2022-10-09T22:27:13.300Z,99704.42
2022-10-09T22:29:44.851Z,99701.63
2022-10-09T22:32:16.295Z,99703.71
2022-10-09T22:34:47.847Z,99701.04
2022-10-09T22:37:19.210Z,99703.58
2022-10-09T22:39:51.603Z,99703.04
2022-10-09T22:42:22.980Z,99702.55
2022-10-09T22:44:54.474Z,99695.46
2022-10-09T22:47:25.913Z,99697.11
2022-10-09T22:49:57.582Z,99692.59
2022-10-09T22:52:29.660Z,99690.05
2022-10-09T22:55:01.538Z,99692.32
2022-10-09T22:57:32.968Z,99695.36
2022-10-09T23:00:05.796Z,99693.08
2022-10-09T23:02:37.297Z,99692.27
2022-10-09T23:05:09.887Z,99694.18
2022-10-09T23:07:41.289Z,99690.27
2022-10-09T23:10:12.995Z,99689.77
2022-10-09T23:12:44.545Z,99685.41
2022-10-09T23:15:16.073Z,99688.64
2022-10-09T23:17:47.552Z,99684.30
2022-10-09T23:20:19.623Z,99687.52
2022-10-09T23:22:51.468Z,99683.54
2022-10-09T23:25:23.362Z,99681.27
2022-10-09T23:27:54.880Z,99677.51
2022-10-09T23:30:26.306Z,99678.96
2022-10-09T23:32:57.792Z,99681.02
2022-10-09T23:35:29.343Z,99680.11
2022-10-09T23:38:00.900Z,99677.92
2022-10-09T23:40:32.442Z,99675.05
2022-10-09T23:43:03.994Z,99673.41
2022-10-09T23:45:35.446Z,99666.83
2022-10-09T23:48:06.944Z,99667.70
2022-10-09T23:50:38.349Z,99660.91
2022-10-09T23:53:09.809Z,99658.55
2022-10-09T23:55:41.203Z,99661.14
2022-10-09T23:58:17.161Z,99663.44
